Terminal Aerodrome Forecast
Issued by NWS

Home | Current Version | Previous Version | Text Only | Print | Product List | Glossary On
Versions: 1 2 3 4 5 6 7 8 9 10 11 12 13 14
000
FTUS45 KABQ 240537
TAFROW
TAF
KROW 240537Z 2406/2506 21013KT P6SM SCT200
     FM241800 26028G35KT P6SM SKC
     FM250000 29018G25KT P6SM SKC=

USA.gov is the U.S. government's official web portal to all federal, state and local government web resources and services.